createdAt,value
2019-05-17T00:00:48.414Z,9.78
2019-05-17T00:03:18.282Z,4.80
2019-05-17T00:05:48.024Z,10.28
2019-05-17T00:08:31.033Z,6.75
2019-05-17T00:10:49.345Z,4.87
2019-05-17T00:13:19.126Z,7.40
2019-05-17T00:15:48.840Z,8.38
2019-05-17T00:18:18.436Z,7.55
2019-05-17T00:20:48.149Z,10.28
2019-05-17T00:23:17.875Z,9.53
2019-05-17T00:25:47.496Z,7.42
2019-05-17T00:28:17.168Z,10.60
2019-05-17T00:30:47.218Z,16.32
2019-05-17T00:33:17.121Z,9.80
2019-05-17T00:35:47.032Z,11.63
2019-05-17T00:38:18.335Z,8.08
2019-05-17T00:40:48.071Z,7.93
2019-05-17T00:43:17.897Z,6.22
2019-05-17T00:45:47.634Z,9.65
2019-05-17T00:48:17.617Z,9.55
2019-05-17T00:50:53.681Z,6.50
2019-05-17T00:53:18.756Z,8.58
2019-05-17T00:55:48.485Z,6.17
2019-05-17T00:58:18.322Z,6.40
2019-05-17T01:00:48.066Z,8.98
2019-05-17T01:03:17.837Z,8.13
2019-05-17T01:05:47.634Z,9.88
2019-05-17T01:08:17.592Z,9.05
2019-05-17T01:10:47.550Z,7.15
2019-05-17T01:13:17.624Z,6.70
2019-05-17T01:15:47.590Z,10.43
2019-05-17T01:18:17.310Z,7.47
2019-05-17T01:20:47.540Z,8.73
2019-05-17T01:23:17.605Z,5.20
2019-05-17T01:25:48.114Z,6.70
2019-05-17T01:28:18.130Z,6.58
2019-05-17T01:30:47.836Z,6.35
2019-05-17T01:33:17.518Z,7.55
2019-05-17T01:35:48.769Z,8.88
2019-05-17T01:38:18.501Z,9.90
2019-05-17T01:40:48.160Z,9.78
2019-05-17T01:43:17.908Z,9.35
2019-05-17T01:45:47.997Z,10.78
2019-05-17T01:48:18.009Z,8.23
2019-05-17T01:50:47.647Z,9.15
2019-05-17T01:53:17.312Z,6.95
2019-05-17T01:55:47.583Z,10.53
2019-05-17T01:58:17.314Z,9.38
2019-05-17T02:00:47.196Z,8.55
2019-05-17T02:03:17.431Z,7.90
2019-05-17T02:05:47.487Z,9.30
2019-05-17T02:08:17.623Z,9.68
2019-05-17T02:10:47.317Z,11.48
2019-05-17T02:13:17.162Z,12.40
2019-05-17T02:15:47.120Z,9.38
2019-05-17T02:18:17.461Z,12.30
2019-05-17T02:20:47.455Z,10.65
2019-05-17T02:23:17.519Z,8.98
2019-05-17T02:25:47.441Z,10.38
2019-05-17T02:28:17.212Z,8.00
2019-05-17T02:30:47.476Z,10.13
2019-05-17T02:33:17.552Z,7.78
2019-05-17T02:35:47.331Z,8.63
2019-05-17T02:38:17.099Z,11.90
2019-05-17T02:40:46.564Z,9.13
2019-05-17T02:43:16.228Z,9.88
2019-05-17T02:45:46.061Z,9.90
2019-05-17T02:48:15.831Z,12.58
2019-05-17T02:50:48.264Z,8.75
2019-05-17T02:53:17.475Z,12.18
2019-05-17T02:55:47.238Z,11.35
2019-05-17T02:58:16.891Z,12.73
2019-05-17T03:00:46.556Z,10.40
2019-05-17T03:03:16.249Z,12.13
2019-05-17T03:05:45.927Z,10.85
2019-05-17T03:08:15.584Z,9.85
2019-05-17T03:10:45.164Z,13.53
2019-05-17T03:13:17.851Z,13.40
2019-05-17T03:15:46.122Z,14.58
2019-05-17T03:18:15.698Z,17.50
2019-05-17T03:20:45.270Z,18.00
2019-05-17T03:23:14.962Z,18.07
2019-05-17T03:25:44.616Z,21.30
2019-05-17T03:28:14.391Z,18.55
2019-05-17T03:30:46.793Z,17.07
2019-05-17T03:35:47.788Z,14.50
2019-05-17T03:38:17.311Z,10.65
2019-05-17T03:41:07.465Z,11.30
2019-05-17T03:43:18.469Z,13.20
2019-05-17T03:45:48.215Z,14.98
2019-05-17T03:48:17.794Z,13.13
2019-05-17T03:50:47.528Z,15.90
2019-05-17T03:53:17.348Z,12.60
2019-05-17T03:55:47.165Z,13.28
2019-05-17T03:58:16.818Z,11.68
2019-05-17T04:00:46.397Z,13.15
2019-05-17T04:03:16.110Z,12.75
2019-05-17T04:05:46.863Z,14.73
2019-05-17T04:08:17.232Z,13.48
2019-05-17T04:10:47.483Z,13.43
2019-05-17T04:13:18.061Z,12.18
2019-05-17T04:15:48.337Z,18.25
2019-05-17T04:18:18.803Z,14.43
2019-05-17T04:20:52.527Z,16.42
2019-05-17T04:23:23.268Z,12.60
2019-05-17T04:28:23.476Z,12.85
2019-05-17T04:30:54.061Z,14.23
2019-05-17T04:33:24.261Z,15.53
2019-05-17T04:35:54.977Z,11.53
2019-05-17T04:38:25.281Z,12.88
2019-05-17T04:40:55.713Z,14.47
2019-05-17T04:43:26.129Z,14.68
2019-05-17T04:45:56.482Z,11.75
2019-05-17T04:48:26.917Z,14.75
2019-05-17T04:50:57.418Z,19.48
2019-05-17T04:53:27.482Z,11.43
2019-05-17T04:55:58.047Z,11.03
2019-05-17T04:58:28.239Z,14.38
2019-05-17T05:00:58.707Z,19.07
2019-05-17T05:03:32.419Z,16.57
2019-05-17T05:06:02.936Z,17.02
2019-05-17T05:08:34.068Z,15.40
2019-05-17T05:11:04.441Z,13.43
2019-05-17T05:13:34.882Z,11.12
2019-05-17T05:16:05.412Z,16.42
2019-05-17T05:18:35.667Z,10.50
2019-05-17T05:21:05.918Z,13.75
2019-05-17T05:23:36.345Z,19.10
2019-05-17T05:26:06.925Z,10.68
2019-05-17T05:28:37.370Z,12.63
2019-05-17T05:31:07.633Z,12.03
2019-05-17T05:33:38.393Z,12.10
2019-05-17T05:36:11.046Z,11.00
2019-05-17T05:38:42.292Z,12.80
2019-05-17T05:41:13.076Z,11.40
2019-05-17T05:43:43.365Z,17.98
2019-05-17T05:46:13.838Z,17.55
2019-05-17T05:48:43.832Z,13.10
2019-05-17T05:51:14.009Z,14.68
2019-05-17T05:53:44.344Z,8.50
2019-05-17T05:56:15.283Z,9.75
2019-05-17T05:58:45.701Z,11.65
2019-05-17T06:01:16.040Z,9.23
2019-05-17T06:03:46.552Z,12.10
2019-05-17T06:06:17.003Z,14.58
2019-05-17T06:08:47.274Z,9.98
2019-05-17T06:11:17.759Z,14.10
2019-05-17T06:13:47.967Z,9.88
2019-05-17T06:16:17.939Z,13.40
2019-05-17T06:18:48.113Z,9.63
2019-05-17T06:21:18.455Z,16.32
2019-05-17T06:23:48.867Z,11.53
2019-05-17T06:26:19.208Z,12.80
2019-05-17T06:28:51.763Z,16.80
2019-05-17T06:33:52.431Z,17.70
2019-05-17T06:36:22.973Z,13.18
2019-05-17T06:38:53.348Z,9.35
2019-05-17T06:41:23.765Z,17.45
2019-05-17T06:43:55.310Z,15.98
2019-05-17T06:46:26.133Z,13.50
2019-05-17T06:48:56.939Z,14.07
2019-05-17T06:51:27.369Z,14.05
2019-05-17T06:53:58.115Z,14.20
2019-05-17T06:56:28.438Z,13.35
2019-05-17T06:58:58.900Z,11.28
2019-05-17T07:01:29.756Z,14.00
2019-05-17T07:04:00.459Z,11.00
2019-05-17T07:06:32.789Z,17.90
2019-05-17T07:09:03.317Z,53.25
2019-05-17T07:11:33.659Z,14.90
2019-05-17T07:14:04.200Z,15.18
2019-05-17T07:16:34.598Z,18.12
2019-05-17T07:19:05.469Z,14.95
2019-05-17T07:21:35.724Z,15.30
2019-05-17T07:24:06.107Z,8.93
2019-05-17T07:26:36.391Z,17.98
2019-05-17T07:29:06.477Z,10.10
2019-05-17T07:31:36.937Z,18.57
2019-05-17T07:34:09.135Z,11.48
2019-05-17T07:36:39.775Z,17.85
2019-05-17T07:39:10.949Z,11.27
2019-05-17T07:41:41.064Z,13.43
2019-05-17T07:44:11.187Z,10.08
2019-05-17T07:46:41.716Z,12.35
2019-05-17T07:49:12.136Z,12.43
2019-05-17T07:51:42.568Z,11.83
2019-05-17T07:54:13.155Z,9.58
2019-05-17T07:56:43.650Z,13.95
2019-05-17T07:59:13.762Z,17.85
2019-05-17T08:01:43.954Z,11.30
2019-05-17T08:04:14.298Z,10.98
2019-05-17T08:06:44.626Z,16.27
2019-05-17T08:09:15.128Z,15.08
2019-05-17T08:11:45.250Z,13.20
2019-05-17T08:14:26.650Z,14.28
2019-05-17T08:16:47.299Z,13.55
2019-05-17T08:19:17.643Z,14.05
2019-05-17T08:21:50.098Z,14.35
2019-05-17T08:24:20.085Z,9.50
2019-05-17T08:26:50.413Z,13.72
2019-05-17T08:29:20.852Z,10.40
2019-05-17T08:31:51.167Z,12.65
2019-05-17T08:34:21.683Z,10.85
2019-05-17T08:36:52.043Z,14.13
2019-05-17T08:39:22.040Z,10.95
2019-05-17T08:41:52.382Z,11.78
2019-05-17T08:44:22.783Z,10.38
2019-05-17T08:46:53.270Z,13.08
2019-05-17T08:49:23.592Z,14.13
2019-05-17T08:51:54.056Z,7.97
2019-05-17T08:54:24.259Z,15.10
2019-05-17T08:56:54.667Z,13.10
2019-05-17T08:59:25.010Z,12.88
2019-05-17T09:01:55.473Z,9.40
2019-05-17T09:04:25.555Z,11.73
2019-05-17T09:06:56.029Z,9.00
2019-05-17T09:09:26.261Z,10.18
2019-05-17T09:11:56.767Z,11.10
2019-05-17T09:14:29.335Z,21.57
2019-05-17T09:19:30.145Z,14.83
2019-05-17T09:22:00.617Z,14.05
2019-05-17T09:24:30.771Z,11.88
2019-05-17T09:27:01.364Z,14.07
2019-05-17T09:29:31.552Z,13.08
2019-05-17T09:32:01.640Z,13.32
2019-05-17T09:34:32.116Z,15.15
2019-05-17T09:37:02.302Z,11.38
2019-05-17T09:39:32.740Z,10.40
2019-05-17T09:42:02.856Z,10.60
2019-05-17T09:44:33.252Z,14.05
2019-05-17T09:47:03.671Z,11.93
2019-05-17T09:49:34.038Z,14.93
2019-05-17T09:52:04.325Z,13.68
2019-05-17T09:54:42.360Z,15.13
2019-05-17T09:57:06.391Z,14.18
2019-05-17T09:59:36.778Z,12.40
2019-05-17T10:02:09.414Z,39.63
2019-05-17T10:04:39.609Z,19.15
2019-05-17T10:07:10.160Z,9.85
2019-05-17T10:09:40.803Z,18.77
2019-05-17T10:12:11.302Z,9.38
2019-05-17T10:14:41.644Z,18.60
2019-05-17T10:17:12.027Z,16.77
2019-05-17T10:19:42.483Z,23.52
2019-05-17T10:22:12.593Z,11.73
2019-05-17T10:24:42.971Z,13.62
2019-05-17T10:27:14.984Z,6.85
2019-05-17T10:32:16.161Z,12.50
2019-05-17T10:34:46.532Z,7.78
2019-05-17T10:37:20.326Z,10.60
2019-05-17T10:39:52.442Z,10.13
2019-05-17T10:42:22.674Z,8.50
2019-05-17T10:44:54.767Z,7.28
2019-05-17T10:49:54.283Z,11.35
2019-05-17T10:52:24.822Z,8.70
2019-05-17T10:54:55.305Z,7.35
2019-05-17T10:57:25.679Z,10.15
2019-05-17T10:59:56.041Z,7.08
2019-05-17T11:02:26.385Z,5.35
2019-05-17T11:04:56.935Z,5.15
2019-05-17T11:07:27.289Z,6.80
2019-05-17T11:09:59.938Z,5.15
2019-05-17T11:12:29.425Z,5.28
2019-05-17T11:15:10.523Z,4.58
2019-05-17T11:17:31.534Z,6.28
2019-05-17T11:20:02.133Z,4.65
2019-05-17T11:22:32.657Z,7.30
2019-05-17T11:25:03.151Z,6.62
2019-05-17T11:27:33.786Z,3.95
2019-05-17T11:30:05.636Z,4.22
2019-05-17T11:32:35.893Z,9.85
2019-05-17T11:35:07.069Z,4.17
2019-05-17T11:37:37.505Z,5.60
2019-05-17T11:40:09.736Z,8.30
2019-05-17T11:42:40.371Z,8.78
2019-05-17T11:45:26.304Z,8.38
2019-05-17T11:47:42.763Z,4.50
2019-05-17T11:50:13.291Z,3.80
2019-05-17T11:52:43.672Z,4.72
2019-05-17T11:55:13.894Z,5.12
2019-05-17T11:57:44.176Z,6.20
2019-05-17T12:00:16.493Z,7.00
2019-05-17T12:02:46.514Z,4.25
2019-05-17T12:05:16.913Z,9.83
2019-05-17T12:07:47.357Z,4.37
2019-05-17T12:10:17.821Z,6.03
2019-05-17T12:12:48.104Z,3.65
2019-05-17T12:15:19.073Z,5.40
2019-05-17T12:17:49.386Z,5.17
2019-05-17T12:20:20.358Z,3.60
2019-05-17T12:22:50.540Z,4.05
2019-05-17T12:25:20.587Z,4.67
2019-05-17T12:27:51.202Z,4.12
2019-05-17T12:30:23.191Z,9.03
2019-05-17T12:32:53.561Z,9.40
2019-05-17T12:35:24.348Z,6.53
2019-05-17T12:37:54.639Z,3.95
2019-05-17T12:40:25.102Z,5.80
2019-05-17T12:42:55.323Z,5.22
2019-05-17T12:45:25.761Z,6.25
2019-05-17T12:47:56.105Z,7.33
2019-05-17T12:50:26.280Z,7.17
2019-05-17T12:52:57.022Z,6.37
2019-05-17T12:55:27.456Z,5.22
2019-05-17T12:57:57.933Z,7.72
2019-05-17T13:00:28.515Z,8.85
2019-05-17T13:02:58.879Z,6.05
2019-05-17T13:05:29.219Z,6.85
2019-05-17T13:07:59.415Z,5.37
2019-05-17T13:10:30.007Z,6.37
2019-05-17T13:13:00.319Z,4.03
2019-05-17T13:15:30.806Z,4.05
2019-05-17T13:18:01.343Z,3.62
2019-05-17T13:20:31.616Z,5.25
2019-05-17T13:23:01.975Z,6.42
2019-05-17T13:25:32.512Z,5.78
2019-05-17T13:28:02.987Z,5.20
2019-05-17T13:30:33.325Z,4.05
2019-05-17T13:33:03.644Z,4.12
2019-05-17T13:35:34.135Z,4.28
2019-05-17T13:38:04.267Z,5.25
2019-05-17T13:40:39.579Z,6.05
2019-05-17T13:45:36.126Z,5.55
2019-05-17T13:48:06.610Z,5.85
2019-05-17T13:50:37.111Z,6.78
2019-05-17T13:53:07.475Z,5.55
2019-05-17T13:55:37.907Z,7.37
2019-05-17T13:58:08.304Z,7.90
2019-05-17T14:00:38.752Z,4.10
2019-05-17T14:03:09.374Z,5.35
2019-05-17T14:05:39.679Z,8.98
2019-05-17T14:08:10.121Z,16.67
2019-05-17T14:10:40.487Z,5.50
2019-05-17T14:13:10.960Z,7.28
2019-05-17T14:15:41.146Z,5.40
2019-05-17T14:18:11.392Z,4.33
2019-05-17T14:20:41.830Z,4.28
2019-05-17T14:23:11.999Z,6.53
2019-05-17T14:25:42.387Z,9.68
2019-05-17T14:28:13.084Z,4.45
2019-05-17T14:30:43.523Z,3.77
2019-05-17T14:33:13.871Z,6.78
2019-05-17T14:35:43.857Z,5.53
2019-05-17T14:38:13.854Z,3.77
2019-05-17T14:41:05.658Z,4.67
2019-05-17T14:43:16.041Z,7.35
2019-05-17T14:45:46.566Z,8.03
2019-05-17T14:48:17.134Z,5.67
2019-05-17T14:50:47.367Z,7.40
2019-05-17T14:53:17.925Z,3.87
2019-05-17T14:55:48.062Z,4.40
2019-05-17T14:58:18.757Z,6.42
2019-05-17T15:00:49.240Z,4.78
2019-05-17T15:03:19.461Z,4.95
2019-05-17T15:05:50.240Z,3.30
2019-05-17T15:08:20.598Z,4.00
2019-05-17T15:10:50.677Z,3.70
2019-05-17T15:13:20.965Z,4.10
2019-05-17T15:15:51.161Z,3.92
2019-05-17T15:18:21.642Z,3.92
2019-05-17T15:20:51.956Z,5.47
2019-05-17T15:23:22.149Z,4.37
2019-05-17T15:25:52.440Z,4.15
2019-05-17T15:28:22.741Z,5.35
2019-05-17T15:30:53.219Z,7.17
2019-05-17T15:33:23.344Z,7.17
2019-05-17T15:35:53.408Z,4.30
2019-05-17T15:38:23.746Z,5.25
2019-05-17T15:40:54.120Z,5.95
2019-05-17T15:43:24.583Z,3.92
2019-05-17T15:45:54.787Z,3.00
2019-05-17T15:48:25.601Z,5.90
2019-05-17T15:50:56.032Z,7.53
2019-05-17T15:53:26.126Z,6.05
2019-05-17T15:55:56.420Z,5.97
2019-05-17T15:58:26.890Z,9.00
2019-05-17T16:00:57.474Z,4.67
2019-05-17T16:03:27.914Z,8.35
2019-05-17T16:05:58.237Z,5.97
2019-05-17T16:08:29.733Z,4.28
2019-05-17T16:11:00.107Z,4.40
2019-05-17T16:13:30.221Z,5.50
2019-05-17T16:16:00.694Z,5.45
2019-05-17T16:18:30.844Z,4.87
2019-05-17T16:21:01.120Z,6.53
2019-05-17T16:23:31.524Z,10.45
2019-05-17T16:26:01.865Z,8.80
2019-05-17T16:28:32.299Z,5.20
2019-05-17T16:31:02.518Z,8.40
2019-05-17T16:33:32.821Z,4.80
2019-05-17T16:36:03.052Z,7.70
2019-05-17T16:38:33.264Z,6.10
2019-05-17T16:41:03.454Z,4.58
2019-05-17T16:43:34.748Z,4.62
2019-05-17T16:46:05.352Z,4.67
2019-05-17T16:48:35.639Z,5.97
2019-05-17T16:51:06.931Z,3.62
2019-05-17T16:53:37.347Z,5.83
2019-05-17T16:56:07.773Z,4.65
2019-05-17T16:58:38.203Z,4.28
2019-05-17T17:01:08.432Z,4.12
2019-05-17T17:03:44.366Z,8.18
2019-05-17T17:06:11.094Z,6.87
2019-05-17T17:08:43.510Z,3.67
2019-05-17T17:11:13.713Z,4.35
2019-05-17T17:13:43.821Z,4.45
2019-05-17T17:16:14.125Z,5.80
2019-05-17T17:18:44.530Z,5.53
2019-05-17T17:21:15.177Z,4.42
2019-05-17T17:23:45.736Z,3.87
2019-05-17T17:26:16.315Z,5.20
2019-05-17T17:28:46.749Z,6.40
2019-05-17T17:31:18.539Z,5.70
2019-05-17T17:33:48.808Z,6.03
2019-05-17T17:36:19.605Z,3.27
2019-05-17T17:38:50.041Z,10.20
2019-05-17T17:41:20.448Z,3.45
2019-05-17T17:43:58.444Z,5.83
2019-05-17T17:46:22.932Z,4.25
2019-05-17T17:48:53.291Z,6.97
2019-05-17T17:51:23.340Z,4.00
2019-05-17T17:53:54.032Z,3.55
2019-05-17T17:56:24.690Z,8.30
2019-05-17T17:58:54.744Z,6.42
2019-05-17T18:01:25.362Z,5.42
2019-05-17T18:03:55.897Z,4.40
2019-05-17T18:06:26.061Z,5.00
2019-05-17T18:08:56.441Z,4.58
2019-05-17T18:11:26.847Z,20.77
2019-05-17T18:13:57.318Z,5.05
2019-05-17T18:16:27.489Z,9.08
2019-05-17T18:18:57.801Z,7.05
2019-05-17T18:21:28.823Z,4.33
2019-05-17T18:23:59.126Z,2.85
2019-05-17T18:26:29.442Z,4.28
2019-05-17T18:28:59.893Z,6.90
2019-05-17T18:31:30.362Z,4.65
2019-05-17T18:34:00.759Z,3.50
2019-05-17T18:36:31.366Z,8.05
2019-05-17T18:39:05.023Z,5.75
2019-05-17T18:41:35.575Z,5.17
2019-05-17T18:44:06.089Z,4.00
2019-05-17T18:46:36.365Z,5.65
2019-05-17T18:49:06.707Z,4.87
2019-05-17T18:51:36.988Z,5.28
2019-05-17T18:54:08.650Z,7.20
2019-05-17T18:56:38.823Z,2.87
2019-05-17T18:59:09.142Z,6.35
2019-05-17T19:01:39.577Z,5.55
2019-05-17T19:04:09.676Z,4.97
2019-05-17T19:06:39.840Z,6.05
2019-05-17T19:09:10.282Z,7.72
2019-05-17T19:11:40.534Z,3.60
2019-05-17T19:14:10.762Z,6.45
2019-05-17T19:16:41.104Z,7.80
2019-05-17T19:19:11.444Z,3.95
2019-05-17T19:21:41.900Z,5.85
2019-05-17T19:24:12.231Z,4.40
2019-05-17T19:26:42.445Z,3.95
2019-05-17T19:29:12.623Z,4.95
2019-05-17T19:31:43.005Z,7.08
2019-05-17T19:34:12.680Z,4.33
2019-05-17T19:36:42.510Z,3.90
2019-05-17T19:39:12.216Z,8.45
2019-05-17T19:41:42.131Z,6.33
2019-05-17T19:44:11.950Z,4.78
2019-05-17T19:46:41.899Z,5.45
2019-05-17T19:49:11.573Z,10.00
2019-05-17T19:51:41.395Z,7.83
2019-05-17T19:56:39.960Z,9.90
2019-05-17T19:59:09.805Z,6.70
2019-05-17T20:01:39.408Z,10.32
2019-05-17T20:04:09.187Z,5.33
2019-05-17T20:06:38.840Z,5.90
2019-05-17T20:09:08.816Z,7.05
2019-05-17T20:11:38.530Z,6.33
2019-05-17T20:14:08.183Z,6.67
2019-05-17T20:16:37.818Z,6.53
2019-05-17T20:19:07.407Z,7.08
2019-05-17T20:21:37.100Z,4.45
2019-05-17T20:24:06.734Z,5.35
2019-05-17T20:29:05.438Z,5.08
2019-05-17T20:34:04.180Z,8.05
2019-05-17T20:36:33.838Z,5.83
2019-05-17T20:39:04.829Z,5.10
2019-05-17T20:41:34.646Z,9.50
2019-05-17T20:44:04.367Z,7.50
2019-05-17T20:46:34.050Z,4.97
2019-05-17T20:49:03.821Z,9.55
2019-05-17T20:51:33.540Z,5.12
2019-05-17T20:54:03.269Z,8.13
2019-05-17T20:56:33.488Z,8.60
2019-05-17T20:59:03.292Z,8.93
2019-05-17T21:01:33.023Z,7.60
2019-05-17T21:04:02.739Z,5.15
2019-05-17T21:06:32.435Z,7.83
2019-05-17T21:09:02.176Z,5.78
2019-05-17T21:11:31.898Z,5.25
2019-05-17T21:14:01.647Z,5.17
2019-05-17T21:16:31.258Z,5.80
2019-05-17T21:19:00.827Z,7.28
2019-05-17T21:21:30.579Z,4.30
2019-05-17T21:24:00.299Z,3.98
2019-05-17T21:26:30.396Z,4.25
2019-05-17T21:28:59.964Z,5.72
2019-05-17T21:31:29.526Z,4.15
2019-05-17T21:33:59.225Z,5.50
2019-05-17T21:36:29.009Z,3.90
2019-05-17T21:38:58.679Z,4.50
2019-05-17T21:41:28.390Z,6.62
2019-05-17T21:43:58.089Z,3.85
2019-05-17T21:46:27.877Z,4.83
2019-05-17T21:48:57.581Z,5.42
2019-05-17T21:51:27.248Z,3.95
2019-05-17T21:53:56.915Z,4.80
2019-05-17T21:56:26.634Z,9.00
2019-05-17T22:01:27.227Z,6.12
2019-05-17T22:03:56.912Z,6.03
2019-05-17T22:06:26.639Z,3.05
2019-05-17T22:08:56.220Z,3.72
2019-05-17T22:11:25.950Z,4.90
2019-05-17T22:13:55.614Z,3.30
2019-05-17T22:16:25.334Z,4.15
2019-05-17T22:18:55.055Z,3.30
2019-05-17T22:21:24.721Z,3.12
2019-05-17T22:23:54.355Z,2.60
2019-05-17T22:26:23.972Z,2.35
2019-05-17T22:28:53.752Z,4.65
2019-05-17T22:31:23.415Z,2.72
2019-05-17T22:33:53.246Z,4.78
2019-05-17T22:36:22.895Z,2.33
2019-05-17T22:38:52.581Z,5.87
2019-05-17T22:41:22.283Z,3.08
2019-05-17T22:43:52.028Z,5.05
2019-05-17T22:46:34.996Z,3.50
2019-05-17T22:48:53.223Z,5.15
2019-05-17T22:51:22.859Z,3.20
2019-05-17T22:53:52.499Z,3.92
2019-05-17T22:56:22.230Z,5.87
2019-05-17T22:58:53.099Z,7.28
2019-05-17T23:01:22.665Z,5.47
2019-05-17T23:06:21.271Z,5.37
2019-05-17T23:08:50.984Z,5.30
2019-05-17T23:11:20.637Z,4.80
2019-05-17T23:13:50.318Z,6.08
2019-05-17T23:16:20.110Z,4.20
2019-05-17T23:19:08.382Z,5.40
2019-05-17T23:21:38.338Z,6.25
2019-05-17T23:24:08.157Z,7.20
2019-05-17T23:26:37.790Z,9.15
2019-05-17T23:29:07.690Z,5.60
2019-05-17T23:31:37.389Z,6.80
2019-05-17T23:34:07.129Z,10.35
2019-05-17T23:36:36.826Z,5.70
2019-05-17T23:39:07.467Z,9.40
2019-05-17T23:41:37.131Z,8.70
2019-05-17T23:44:06.815Z,8.15
2019-05-17T23:46:36.409Z,5.67
2019-05-17T23:49:06.117Z,6.17
2019-05-17T23:51:35.874Z,6.75
2019-05-17T23:54:05.603Z,7.47
2019-05-17T23:56:36.977Z,6.08
2019-05-17T23:59:06.653Z,8.08
